Terminal Aerodrome Forecast
Issued by NWS

Home | Current Version | Previous Version | Text Only | Print | Product List | Glossary On
Versions: 1 2 3 4 5 6 7 8 9 10 11 12 13 14 15
922
FTUS41 KBTV 212340
TAFRUT
TAF
KRUT 212340Z 2200/2224 15007KT P6SM SCT200
     FM221100 16006KT P6SM VCSH OVC060
     FM221400 24006KT P6SM VCSH OVC030
     FM221800 30007KT P6SM BKN025=

USA.gov is the U.S. government's official web portal to all federal, state and local government web resources and services.